This is the latest recevied weather packets stored in our database for station/object K8FJG-13. If no packets are shown the sender has not sent any weather packets the latest 10 day(s).
| Time | Temp. | Humidity | Pressure | Rain* | Wind** | Luminosity | Snow |
|---|---|---|---|---|---|---|---|
| 1777942409 | 19.44° C | 59% | 960 hPa | - | - | - | - |
| 1777941805 | 19.44° C | 60% | 959.9 hPa | - | - | - | - |
| 1777941202 | 20° C | 58% | 959.8 hPa | - | - | - | - |
| 1777940599 | 20° C | 58% | 959.8 hPa | - | - | - | - |
| 1777939996 | 20° C | 58% | 959.5 hPa | - | - | - | - |
| 1777939393 | 20.56° C | 58% | 959.6 hPa | - | - | - | - |
| 1777938790 | 20.56° C | 58% | 959.4 hPa | - | - | - | - |
| 1777938187 | 20.56° C | 59% | 959.3 hPa | - | - | - | - |
| 1777937584 | 20.56° C | 58% | 959.3 hPa | - | - | - | - |
| 1777936980 | 20° C | 60% | 959.1 hPa | - | - | - | - |
| 1777936377 | 20° C | 63% | 959.3 hPa | - | - | - | - |
| 1777935774 | 19.44° C | 66% | 959.5 hPa | - | - | - | - |
| 1777935171 | 19.44° C | 66% | 959.6 hPa | - | - | - | - |
| 1777934568 | 19.44° C | 66% | 959.8 hPa | - | - | - | - |
| 1777933965 | 20° C | 68% | 960.1 hPa | - | - | - | - |
| 1777933361 | 21.11° C | 56% | 960.2 hPa | - | - | - | - |
| 1777932758 | 21.67° C | 55% | 960 hPa | - | - | - | - |
| 1777932155 | 22.22° C | 53% | 960 hPa | - | - | - | - |
| 1777931552 | 22.22° C | 52% | 959.9 hPa | - | - | - | - |
| 1777930949 | 22.22° C | 52% | 959.9 hPa | - | - | - | - |
| 1777930346 | 22.22° C | 51% | 959.8 hPa | - | - | - | - |
| 1777929742 | 21.67° C | 51% | 960 hPa | - | - | - | - |
| 1777929139 | 21.67° C | 51% | 960.3 hPa | - | - | - | - |
| 1777928536 | 22.22° C | 49% | 960.2 hPa | - | - | - | - |
| 1777927933 | 22.22° C | 48% | 960.4 hPa | - | - | - | - |
* Rain since midnight (hover to see other rain measurements)
** Current wind speed in m/s (hover to see current wind gust speed)